sensor_id;sensor_type;location;lat;lon;timestamp;P1;durP1;ratioP1;P2;durP2;ratioP2
28523;SDS011;15734;50.904;6.922;2022-09-29T00:01:23;8.07;;;3.95;;
28523;SDS011;15734;50.904;6.922;2022-09-29T00:03:49;8.32;;;4.13;;
28523;SDS011;15734;50.904;6.922;2022-09-29T00:06:15;9.23;;;4.05;;
28523;SDS011;15734;50.904;6.922;2022-09-29T00:08:42;9.88;;;4.22;;
28523;SDS011;15734;50.904;6.922;2022-09-29T00:11:08;6.97;;;4.25;;
28523;SDS011;15734;50.904;6.922;2022-09-29T00:13:35;6.40;;;3.60;;
28523;SDS011;15734;50.904;6.922;2022-09-29T00:16:01;9.93;;;3.47;;
28523;SDS011;15734;50.904;6.922;2022-09-29T00:18:27;7.32;;;3.92;;
28523;SDS011;15734;50.904;6.922;2022-09-29T00:20:55;11.73;;;4.10;;
28523;SDS011;15734;50.904;6.922;2022-09-29T00:23:25;15.73;;;4.22;;
28523;SDS011;15734;50.904;6.922;2022-09-29T00:26:07;8.73;;;4.13;;
28523;SDS011;15734;50.904;6.922;2022-09-29T00:28:35;9.98;;;5.18;;
28523;SDS011;15734;50.904;6.922;2022-09-29T00:31:02;5.20;;;3.92;;
28523;SDS011;15734;50.904;6.922;2022-09-29T00:33:32;10.15;;;3.80;;
28523;SDS011;15734;50.904;6.922;2022-09-29T00:36:01;7.20;;;4.60;;
28523;SDS011;15734;50.904;6.922;2022-09-29T00:38:33;10.57;;;4.07;;
28523;SDS011;15734;50.904;6.922;2022-09-29T00:41:00;8.25;;;4.35;;
28523;SDS011;15734;50.904;6.922;2022-09-29T00:49:16;5.45;;;4.03;;
28523;SDS011;15734;50.904;6.922;2022-09-29T00:52:04;7.05;;;3.65;;
28523;SDS011;15734;50.904;6.922;2022-09-29T00:55:12;5.38;;;3.72;;
28523;SDS011;15734;50.904;6.922;2022-09-29T00:57:34;6.97;;;4.25;;
28523;SDS011;15734;50.904;6.922;2022-09-29T01:02:33;8.88;;;3.65;;
28523;SDS011;15734;50.904;6.922;2022-09-29T01:05:01;6.30;;;3.95;;
28523;SDS011;15734;50.904;6.922;2022-09-29T01:07:31;7.40;;;4.53;;
28523;SDS011;15734;50.904;6.922;2022-09-29T01:09:57;6.75;;;3.75;;
28523;SDS011;15734;50.904;6.922;2022-09-29T01:12:24;5.25;;;4.07;;
28523;SDS011;15734;50.904;6.922;2022-09-29T01:14:51;8.55;;;4.63;;
28523;SDS011;15734;50.904;6.922;2022-09-29T01:17:18;7.25;;;4.43;;
28523;SDS011;15734;50.904;6.922;2022-09-29T01:19:48;10.95;;;5.28;;
28523;SDS011;15734;50.904;6.922;2022-09-29T01:28:11;16.38;;;4.85;;
28523;SDS011;15734;50.904;6.922;2022-09-29T01:30:51;7.38;;;4.72;;
28523;SDS011;15734;50.904;6.922;2022-09-29T01:39:53;7.85;;;5.07;;
28523;SDS011;15734;50.904;6.922;2022-09-29T01:42:41;7.65;;;5.03;;
28523;SDS011;15734;50.904;6.922;2022-09-29T01:45:20;10.55;;;5.25;;
28523;SDS011;15734;50.904;6.922;2022-09-29T01:47:52;11.55;;;5.15;;
28523;SDS011;15734;50.904;6.922;2022-09-29T01:50:23;7.80;;;5.00;;
28523;SDS011;15734;50.904;6.922;2022-09-29T01:53:00;7.57;;;4.65;;
28523;SDS011;15734;50.904;6.922;2022-09-29T01:55:29;8.18;;;5.05;;
28523;SDS011;15734;50.904;6.922;2022-09-29T01:58:00;9.25;;;5.53;;
28523;SDS011;15734;50.904;6.922;2022-09-29T02:00:30;6.93;;;4.72;;
28523;SDS011;15734;50.904;6.922;2022-09-29T02:03:07;8.77;;;5.28;;
28523;SDS011;15734;50.904;6.922;2022-09-29T02:05:41;8.82;;;5.30;;
28523;SDS011;15734;50.904;6.922;2022-09-29T02:08:12;7.40;;;4.60;;
28523;SDS011;15734;50.904;6.922;2022-09-29T02:10:45;6.82;;;4.80;;
28523;SDS011;15734;50.904;6.922;2022-09-29T02:13:14;9.75;;;5.38;;
28523;SDS011;15734;50.904;6.922;2022-09-29T02:15:44;6.95;;;4.40;;
28523;SDS011;15734;50.904;6.922;2022-09-29T02:18:15;14.38;;;4.65;;
28523;SDS011;15734;50.904;6.922;2022-09-29T02:20:53;5.40;;;4.40;;
28523;SDS011;15734;50.904;6.922;2022-09-29T02:23:19;9.23;;;4.55;;
28523;SDS011;15734;50.904;6.922;2022-09-29T02:25:45;8.55;;;5.00;;
28523;SDS011;15734;50.904;6.922;2022-09-29T02:28:12;9.55;;;4.85;;
28523;SDS011;15734;50.904;6.922;2022-09-29T02:30:38;11.23;;;5.65;;
28523;SDS011;15734;50.904;6.922;2022-09-29T02:33:04;8.18;;;5.57;;
28523;SDS011;15734;50.904;6.922;2022-09-29T02:38:41;9.15;;;5.35;;
28523;SDS011;15734;50.904;6.922;2022-09-29T02:46:40;9.32;;;6.07;;
28523;SDS011;15734;50.904;6.922;2022-09-29T02:52:11;9.48;;;5.35;;
28523;SDS011;15734;50.904;6.922;2022-09-29T03:00:21;8.98;;;5.45;;
28523;SDS011;15734;50.904;6.922;2022-09-29T03:02:47;8.05;;;5.50;;
28523;SDS011;15734;50.904;6.922;2022-09-29T03:05:14;10.20;;;6.50;;
28523;SDS011;15734;50.904;6.922;2022-09-29T03:07:41;11.23;;;6.25;;
28523;SDS011;15734;50.904;6.922;2022-09-29T03:10:07;9.63;;;6.38;;
28523;SDS011;15734;50.904;6.922;2022-09-29T03:12:34;9.65;;;6.10;;
28523;SDS011;15734;50.904;6.922;2022-09-29T03:15:00;14.10;;;6.22;;
28523;SDS011;15734;50.904;6.922;2022-09-29T03:17:25;13.77;;;6.95;;
28523;SDS011;15734;50.904;6.922;2022-09-29T03:19:51;13.00;;;6.57;;
28523;SDS011;15734;50.904;6.922;2022-09-29T03:22:17;11.80;;;6.40;;
28523;SDS011;15734;50.904;6.922;2022-09-29T03:24:43;10.55;;;7.18;;
28523;SDS011;15734;50.904;6.922;2022-09-29T03:27:09;10.15;;;6.38;;
28523;SDS011;15734;50.904;6.922;2022-09-29T03:29:35;14.27;;;7.63;;
28523;SDS011;15734;50.904;6.922;2022-09-29T03:32:01;12.82;;;7.05;;
28523;SDS011;15734;50.904;6.922;2022-09-29T03:34:28;12.32;;;7.57;;
28523;SDS011;15734;50.904;6.922;2022-09-29T03:36:54;15.82;;;6.82;;
28523;SDS011;15734;50.904;6.922;2022-09-29T03:39:21;12.82;;;6.88;;
28523;SDS011;15734;50.904;6.922;2022-09-29T03:41:48;12.63;;;7.25;;
28523;SDS011;15734;50.904;6.922;2022-09-29T03:44:13;12.82;;;7.40;;
28523;SDS011;15734;50.904;6.922;2022-09-29T03:46:39;10.65;;;7.10;;
28523;SDS011;15734;50.904;6.922;2022-09-29T03:49:05;13.57;;;7.55;;
28523;SDS011;15734;50.904;6.922;2022-09-29T03:51:30;14.50;;;8.38;;
28523;SDS011;15734;50.904;6.922;2022-09-29T03:53:56;11.90;;;7.25;;
28523;SDS011;15734;50.904;6.922;2022-09-29T03:56:21;14.05;;;7.90;;
28523;SDS011;15734;50.904;6.922;2022-09-29T03:58:47;18.48;;;7.68;;
28523;SDS011;15734;50.904;6.922;2022-09-29T04:01:13;21.58;;;7.43;;
28523;SDS011;15734;50.904;6.922;2022-09-29T04:03:38;17.88;;;7.30;;
28523;SDS011;15734;50.904;6.922;2022-09-29T04:06:04;12.40;;;7.05;;
28523;SDS011;15734;50.904;6.922;2022-09-29T04:08:29;15.13;;;7.47;;
28523;SDS011;15734;50.904;6.922;2022-09-29T04:10:55;19.17;;;7.00;;
28523;SDS011;15734;50.904;6.922;2022-09-29T04:13:20;21.33;;;6.80;;
28523;SDS011;15734;50.904;6.922;2022-09-29T04:15:49;14.65;;;7.45;;
28523;SDS011;15734;50.904;6.922;2022-09-29T04:18:14;14.90;;;8.23;;
28523;SDS011;15734;50.904;6.922;2022-09-29T04:20:40;18.42;;;10.20;;
28523;SDS011;15734;50.904;6.922;2022-09-29T04:23:06;20.70;;;8.05;;
28523;SDS011;15734;50.904;6.922;2022-09-29T04:25:32;11.40;;;6.75;;
28523;SDS011;15734;50.904;6.922;2022-09-29T04:27:57;12.32;;;7.40;;
28523;SDS011;15734;50.904;6.922;2022-09-29T04:30:23;14.05;;;7.55;;
28523;SDS011;15734;50.904;6.922;2022-09-29T04:32:49;15.55;;;7.22;;
28523;SDS011;15734;50.904;6.922;2022-09-29T04:35:14;15.10;;;7.55;;
28523;SDS011;15734;50.904;6.922;2022-09-29T04:37:40;12.82;;;6.75;;
28523;SDS011;15734;50.904;6.922;2022-09-29T04:40:05;14.48;;;7.75;;
28523;SDS011;15734;50.904;6.922;2022-09-29T04:42:31;18.35;;;8.27;;
28523;SDS011;15734;50.904;6.922;2022-09-29T04:44:57;19.10;;;8.38;;
28523;SDS011;15734;50.904;6.922;2022-09-29T04:47:22;22.08;;;9.30;;
28523;SDS011;15734;50.904;6.922;2022-09-29T04:49:48;29.30;;;9.50;;
28523;SDS011;15734;50.904;6.922;2022-09-29T04:52:13;20.05;;;8.95;;
28523;SDS011;15734;50.904;6.922;2022-09-29T04:54:39;19.40;;;9.68;;
28523;SDS011;15734;50.904;6.922;2022-09-29T04:57:05;18.92;;;9.57;;
28523;SDS011;15734;50.904;6.922;2022-09-29T04:59:31;23.70;;;10.43;;
28523;SDS011;15734;50.904;6.922;2022-09-29T05:01:57;20.38;;;10.40;;
28523;SDS011;15734;50.904;6.922;2022-09-29T05:04:23;24.00;;;10.43;;
28523;SDS011;15734;50.904;6.922;2022-09-29T05:06:48;27.88;;;11.48;;
28523;SDS011;15734;50.904;6.922;2022-09-29T05:09:14;27.90;;;12.25;;
28523;SDS011;15734;50.904;6.922;2022-09-29T05:11:39;25.65;;;12.15;;
28523;SDS011;15734;50.904;6.922;2022-09-29T05:14:05;22.80;;;11.48;;
28523;SDS011;15734;50.904;6.922;2022-09-29T05:16:31;23.98;;;11.07;;
28523;SDS011;15734;50.904;6.922;2022-09-29T05:18:56;39.60;;;14.93;;
28523;SDS011;15734;50.904;6.922;2022-09-29T05:21:22;31.35;;;12.55;;
28523;SDS011;15734;50.904;6.922;2022-09-29T05:23:48;35.13;;;12.88;;
28523;SDS011;15734;50.904;6.922;2022-09-29T05:26:14;41.60;;;13.82;;
28523;SDS011;15734;50.904;6.922;2022-09-29T05:28:43;35.00;;;13.73;;
28523;SDS011;15734;50.904;6.922;2022-09-29T05:31:11;32.13;;;12.85;;
28523;SDS011;15734;50.904;6.922;2022-09-29T05:33:37;39.15;;;14.18;;
28523;SDS011;15734;50.904;6.922;2022-09-29T05:36:03;29.33;;;12.60;;
28523;SDS011;15734;50.904;6.922;2022-09-29T05:38:33;38.40;;;13.15;;
28523;SDS011;15734;50.904;6.922;2022-09-29T05:41:04;27.67;;;11.60;;
28523;SDS011;15734;50.904;6.922;2022-09-29T05:43:31;34.75;;;13.15;;
28523;SDS011;15734;50.904;6.922;2022-09-29T05:46:00;29.25;;;13.38;;
28523;SDS011;15734;50.904;6.922;2022-09-29T05:48:26;32.40;;;12.65;;
28523;SDS011;15734;50.904;6.922;2022-09-29T05:50:54;29.25;;;14.40;;
28523;SDS011;15734;50.904;6.922;2022-09-29T05:53:23;25.52;;;11.38;;
28523;SDS011;15734;50.904;6.922;2022-09-29T05:55:49;28.20;;;13.32;;
28523;SDS011;15734;50.904;6.922;2022-09-29T05:58:15;32.25;;;12.55;;
28523;SDS011;15734;50.904;6.922;2022-09-29T06:00:41;58.03;;;13.65;;
28523;SDS011;15734;50.904;6.922;2022-09-29T06:03:07;31.92;;;12.45;;
28523;SDS011;15734;50.904;6.922;2022-09-29T06:05:32;23.55;;;11.23;;
28523;SDS011;15734;50.904;6.922;2022-09-29T06:08:02;36.25;;;12.10;;
28523;SDS011;15734;50.904;6.922;2022-09-29T06:10:28;21.23;;;10.48;;
28523;SDS011;15734;50.904;6.922;2022-09-29T06:12:54;34.92;;;11.80;;
28523;SDS011;15734;50.904;6.922;2022-09-29T06:15:21;26.52;;;11.88;;
28523;SDS011;15734;50.904;6.922;2022-09-29T06:17:46;29.25;;;12.57;;
28523;SDS011;15734;50.904;6.922;2022-09-29T06:20:18;24.40;;;12.00;;
28523;SDS011;15734;50.904;6.922;2022-09-29T06:22:44;34.95;;;12.52;;
28523;SDS011;15734;50.904;6.922;2022-09-29T06:25:09;39.30;;;12.60;;
28523;SDS011;15734;50.904;6.922;2022-09-29T06:27:35;35.50;;;12.75;;
28523;SDS011;15734;50.904;6.922;2022-09-29T06:30:01;33.47;;;13.40;;
28523;SDS011;15734;50.904;6.922;2022-09-29T06:32:26;26.25;;;12.35;;
28523;SDS011;15734;50.904;6.922;2022-09-29T06:34:52;39.65;;;13.45;;
28523;SDS011;15734;50.904;6.922;2022-09-29T06:37:36;27.38;;;13.02;;
28523;SDS011;15734;50.904;6.922;2022-09-29T06:40:07;35.85;;;14.93;;
28523;SDS011;15734;50.904;6.922;2022-09-29T06:42:34;41.42;;;17.30;;
28523;SDS011;15734;50.904;6.922;2022-09-29T06:45:00;33.92;;;16.02;;
28523;SDS011;15734;50.904;6.922;2022-09-29T06:47:25;34.53;;;14.23;;
28523;SDS011;15734;50.904;6.922;2022-09-29T06:49:51;31.23;;;14.50;;
28523;SDS011;15734;50.904;6.922;2022-09-29T06:52:16;33.08;;;14.50;;
28523;SDS011;15734;50.904;6.922;2022-09-29T06:54:43;32.78;;;14.25;;
28523;SDS011;15734;50.904;6.922;2022-09-29T06:57:09;34.67;;;15.35;;
28523;SDS011;15734;50.904;6.922;2022-09-29T06:59:34;36.10;;;13.68;;
28523;SDS011;15734;50.904;6.922;2022-09-29T07:02:00;44.15;;;13.98;;
28523;SDS011;15734;50.904;6.922;2022-09-29T07:04:25;37.25;;;15.20;;
28523;SDS011;15734;50.904;6.922;2022-09-29T07:06:51;38.95;;;13.60;;
28523;SDS011;15734;50.904;6.922;2022-09-29T07:09:17;32.65;;;14.68;;
28523;SDS011;15734;50.904;6.922;2022-09-29T07:11:44;36.60;;;15.18;;
28523;SDS011;15734;50.904;6.922;2022-09-29T07:14:18;56.42;;;16.38;;
28523;SDS011;15734;50.904;6.922;2022-09-29T07:16:46;43.30;;;15.25;;
28523;SDS011;15734;50.904;6.922;2022-09-29T07:19:12;37.30;;;15.88;;
28523;SDS011;15734;50.904;6.922;2022-09-29T07:21:38;40.95;;;17.73;;
28523;SDS011;15734;50.904;6.922;2022-09-29T07:24:04;41.63;;;17.52;;
28523;SDS011;15734;50.904;6.922;2022-09-29T07:26:30;53.38;;;18.77;;
28523;SDS011;15734;50.904;6.922;2022-09-29T07:28:55;44.40;;;18.60;;
28523;SDS011;15734;50.904;6.922;2022-09-29T07:31:21;62.58;;;20.17;;
28523;SDS011;15734;50.904;6.922;2022-09-29T07:33:48;49.20;;;21.05;;
28523;SDS011;15734;50.904;6.922;2022-09-29T07:36:15;52.75;;;20.27;;
28523;SDS011;15734;50.904;6.922;2022-09-29T07:38:44;55.47;;;21.13;;
28523;SDS011;15734;50.904;6.922;2022-09-29T07:41:10;63.40;;;22.77;;
28523;SDS011;15734;50.904;6.922;2022-09-29T07:43:36;55.42;;;20.98;;
28523;SDS011;15734;50.904;6.922;2022-09-29T07:46:02;56.80;;;22.35;;
28523;SDS011;15734;50.904;6.922;2022-09-29T07:48:28;54.35;;;21.40;;
28523;SDS011;15734;50.904;6.922;2022-09-29T07:53:28;59.42;;;23.88;;
28523;SDS011;15734;50.904;6.922;2022-09-29T07:55:54;52.65;;;21.00;;
28523;SDS011;15734;50.904;6.922;2022-09-29T07:58:20;57.38;;;21.15;;
28523;SDS011;15734;50.904;6.922;2022-09-29T08:00:51;49.40;;;19.75;;
28523;SDS011;15734;50.904;6.922;2022-09-29T08:03:18;50.88;;;21.52;;
28523;SDS011;15734;50.904;6.922;2022-09-29T08:05:43;56.83;;;22.55;;
28523;SDS011;15734;50.904;6.922;2022-09-29T08:08:09;55.60;;;24.05;;
28523;SDS011;15734;50.904;6.922;2022-09-29T08:10:34;60.22;;;26.05;;
28523;SDS011;15734;50.904;6.922;2022-09-29T08:13:00;61.22;;;24.60;;
28523;SDS011;15734;50.904;6.922;2022-09-29T08:15:25;60.83;;;25.17;;
28523;SDS011;15734;50.904;6.922;2022-09-29T08:17:51;53.25;;;23.00;;
28523;SDS011;15734;50.904;6.922;2022-09-29T08:20:18;61.50;;;22.80;;
28523;SDS011;15734;50.904;6.922;2022-09-29T08:22:44;60.90;;;25.17;;
28523;SDS011;15734;50.904;6.922;2022-09-29T08:25:10;63.15;;;25.73;;
28523;SDS011;15734;50.904;6.922;2022-09-29T08:27:36;66.10;;;24.13;;
28523;SDS011;15734;50.904;6.922;2022-09-29T08:30:02;70.97;;;26.20;;
28523;SDS011;15734;50.904;6.922;2022-09-29T08:32:28;62.15;;;23.88;;
28523;SDS011;15734;50.904;6.922;2022-09-29T08:34:53;62.13;;;24.67;;
28523;SDS011;15734;50.904;6.922;2022-09-29T08:37:19;62.55;;;26.00;;
28523;SDS011;15734;50.904;6.922;2022-09-29T08:39:44;67.88;;;27.05;;
28523;SDS011;15734;50.904;6.922;2022-09-29T08:42:33;68.85;;;27.13;;
28523;SDS011;15734;50.904;6.922;2022-09-29T08:45:04;63.20;;;24.73;;
28523;SDS011;15734;50.904;6.922;2022-09-29T08:47:46;62.75;;;26.95;;
28523;SDS011;15734;50.904;6.922;2022-09-29T08:50:28;68.35;;;26.05;;
28523;SDS011;15734;50.904;6.922;2022-09-29T08:52:58;61.15;;;25.55;;
28523;SDS011;15734;50.904;6.922;2022-09-29T08:58:01;61.97;;;26.98;;
28523;SDS011;15734;50.904;6.922;2022-09-29T09:01:14;66.82;;;26.00;;
28523;SDS011;15734;50.904;6.922;2022-09-29T09:03:22;67.53;;;27.67;;
28523;SDS011;15734;50.904;6.922;2022-09-29T09:20:08;60.53;;;25.88;;
28523;SDS011;15734;50.904;6.922;2022-09-29T09:22:41;49.20;;;24.80;;
28523;SDS011;15734;50.904;6.922;2022-09-29T09:25:20;57.65;;;25.17;;
28523;SDS011;15734;50.904;6.922;2022-09-29T09:30:53;52.05;;;24.77;;
28523;SDS011;15734;50.904;6.922;2022-09-29T09:33:29;50.10;;;24.77;;
28523;SDS011;15734;50.904;6.922;2022-09-29T09:36:44;50.35;;;24.23;;
28523;SDS011;15734;50.904;6.922;2022-09-29T09:41:50;46.70;;;22.42;;
28523;SDS011;15734;50.904;6.922;2022-09-29T09:44:19;49.03;;;22.60;;
28523;SDS011;15734;50.904;6.922;2022-09-29T09:46:57;41.25;;;21.05;;
28523;SDS011;15734;50.904;6.922;2022-09-29T09:49:43;44.40;;;22.38;;
28523;SDS011;15734;50.904;6.922;2022-09-29T09:52:20;47.53;;;23.17;;
28523;SDS011;15734;50.904;6.922;2022-09-29T09:54:49;45.97;;;22.20;;
28523;SDS011;15734;50.904;6.922;2022-09-29T10:05:16;41.08;;;19.80;;
28523;SDS011;15734;50.904;6.922;2022-09-29T10:07:48;35.00;;;19.58;;
28523;SDS011;15734;50.904;6.922;2022-09-29T10:10:19;37.60;;;17.77;;
28523;SDS011;15734;50.904;6.922;2022-09-29T10:12:48;33.65;;;19.38;;
28523;SDS011;15734;50.904;6.922;2022-09-29T10:15:24;34.50;;;17.92;;
28523;SDS011;15734;50.904;6.922;2022-09-29T10:18:00;26.25;;;15.02;;
28523;SDS011;15734;50.904;6.922;2022-09-29T10:20:36;21.75;;;12.65;;
28523;SDS011;15734;50.904;6.922;2022-09-29T10:23:24;20.77;;;11.68;;
28523;SDS011;15734;50.904;6.922;2022-09-29T10:28:22;23.95;;;11.07;;
28523;SDS011;15734;50.904;6.922;2022-09-29T10:30:50;17.63;;;10.10;;
28523;SDS011;15734;50.904;6.922;2022-09-29T10:33:18;20.80;;;11.00;;
28523;SDS011;15734;50.904;6.922;2022-09-29T10:35:47;20.40;;;9.55;;
28523;SDS011;15734;50.904;6.922;2022-09-29T10:41:04;15.07;;;10.40;;
28523;SDS011;15734;50.904;6.922;2022-09-29T10:43:34;13.63;;;8.57;;
28523;SDS011;15734;50.904;6.922;2022-09-29T10:46:08;11.52;;;6.80;;
28523;SDS011;15734;50.904;6.922;2022-09-29T10:49:08;13.90;;;8.35;;
28523;SDS011;15734;50.904;6.922;2022-09-29T10:51:56;11.40;;;6.72;;
28523;SDS011;15734;50.904;6.922;2022-09-29T10:54:36;11.93;;;5.78;;
28523;SDS011;15734;50.904;6.922;2022-09-29T10:57:13;8.63;;;5.72;;
28523;SDS011;15734;50.904;6.922;2022-09-29T10:59:47;9.90;;;5.95;;
28523;SDS011;15734;50.904;6.922;2022-09-29T11:02:19;10.07;;;5.93;;
28523;SDS011;15734;50.904;6.922;2022-09-29T11:04:59;14.35;;;5.28;;
28523;SDS011;15734;50.904;6.922;2022-09-29T11:07:28;15.57;;;4.85;;
28523;SDS011;15734;50.904;6.922;2022-09-29T11:09:55;10.02;;;5.25;;
28523;SDS011;15734;50.904;6.922;2022-09-29T11:12:31;9.38;;;4.70;;
28523;SDS011;15734;50.904;6.922;2022-09-29T11:14:59;9.18;;;4.72;;
28523;SDS011;15734;50.904;6.922;2022-09-29T11:17:27;8.90;;;4.78;;
28523;SDS011;15734;50.904;6.922;2022-09-29T11:19:55;11.90;;;4.97;;
28523;SDS011;15734;50.904;6.922;2022-09-29T11:25:36;8.48;;;4.43;;
28523;SDS011;15734;50.904;6.922;2022-09-29T11:36:54;11.73;;;3.20;;
28523;SDS011;15734;50.904;6.922;2022-09-29T11:45:20;12.80;;;3.40;;
28523;SDS011;15734;50.904;6.922;2022-09-29T11:57:13;8.15;;;2.42;;
28523;SDS011;15734;50.904;6.922;2022-09-29T12:00:13;3.22;;;2.00;;
28523;SDS011;15734;50.904;6.922;2022-09-29T12:13:46;4.22;;;1.67;;
28523;SDS011;15734;50.904;6.922;2022-09-29T12:16:21;4.32;;;1.45;;
28523;SDS011;15734;50.904;6.922;2022-09-29T12:18:56;3.78;;;1.77;;
28523;SDS011;15734;50.904;6.922;2022-09-29T12:21:31;3.88;;;1.88;;
28523;SDS011;15734;50.904;6.922;2022-09-29T12:24:03;1.50;;;1.30;;
28523;SDS011;15734;50.904;6.922;2022-09-29T12:26:34;4.22;;;1.30;;
28523;SDS011;15734;50.904;6.922;2022-09-29T12:29:02;6.97;;;1.45;;
28523;SDS011;15734;50.904;6.922;2022-09-29T12:31:49;2.65;;;1.75;;
28523;SDS011;15734;50.904;6.922;2022-09-29T12:34:19;3.08;;;1.15;;
28523;SDS011;15734;50.904;6.922;2022-09-29T12:39:36;3.38;;;1.48;;
28523;SDS011;15734;50.904;6.922;2022-09-29T12:44:36;4.00;;;1.35;;
28523;SDS011;15734;50.904;6.922;2022-09-29T12:50:21;2.60;;;1.15;;
28523;SDS011;15734;50.904;6.922;2022-09-29T12:58:25;4.53;;;1.08;;
28523;SDS011;15734;50.904;6.922;2022-09-29T13:00:55;4.90;;;1.15;;
28523;SDS011;15734;50.904;6.922;2022-09-29T13:03:35;2.10;;;1.30;;
28523;SDS011;15734;50.904;6.922;2022-09-29T13:06:13;7.80;;;1.13;;
28523;SDS011;15734;50.904;6.922;2022-09-29T13:09:08;4.93;;;1.50;;
28523;SDS011;15734;50.904;6.922;2022-09-29T13:14:17;2.13;;;1.15;;
28523;SDS011;15734;50.904;6.922;2022-09-29T13:17:19;1.60;;;1.15;;
28523;SDS011;15734;50.904;6.922;2022-09-29T13:30:46;2.22;;;1.23;;
28523;SDS011;15734;50.904;6.922;2022-09-29T13:33:17;8.40;;;1.40;;
28523;SDS011;15734;50.904;6.922;2022-09-29T13:35:47;2.22;;;1.45;;
28523;SDS011;15734;50.904;6.922;2022-09-29T13:38:24;1.00;;;0.90;;
28523;SDS011;15734;50.904;6.922;2022-09-29T13:46:25;3.42;;;1.42;;
28523;SDS011;15734;50.904;6.922;2022-09-29T13:49:15;5.00;;;1.02;;
28523;SDS011;15734;50.904;6.922;2022-09-29T13:57:01;1.33;;;0.90;;
28523;SDS011;15734;50.904;6.922;2022-09-29T13:59:31;6.95;;;1.17;;
28523;SDS011;15734;50.904;6.922;2022-09-29T14:01:57;5.50;;;0.82;;
28523;SDS011;15734;50.904;6.922;2022-09-29T14:07:35;5.63;;;1.50;;
28523;SDS011;15734;50.904;6.922;2022-09-29T14:13:10;3.92;;;1.35;;
28523;SDS011;15734;50.904;6.922;2022-09-29T14:18:52;5.75;;;1.90;;
28523;SDS011;15734;50.904;6.922;2022-09-29T14:21:55;6.82;;;1.90;;
28523;SDS011;15734;50.904;6.922;2022-09-29T14:30:00;2.78;;;1.60;;
28523;SDS011;15734;50.904;6.922;2022-09-29T14:32:42;3.85;;;2.15;;
28523;SDS011;15734;50.904;6.922;2022-09-29T14:35:28;6.20;;;2.50;;
28523;SDS011;15734;50.904;6.922;2022-09-29T14:40:29;3.38;;;1.67;;
28523;SDS011;15734;50.904;6.922;2022-09-29T14:46:01;4.00;;;1.58;;
28523;SDS011;15734;50.904;6.922;2022-09-29T15:03:10;7.50;;;2.42;;
28523;SDS011;15734;50.904;6.922;2022-09-29T15:05:43;4.78;;;2.63;;
28523;SDS011;15734;50.904;6.922;2022-09-29T15:08:25;5.88;;;2.17;;
28523;SDS011;15734;50.904;6.922;2022-09-29T15:10:53;8.80;;;2.30;;
28523;SDS011;15734;50.904;6.922;2022-09-29T15:13:23;4.93;;;1.98;;
28523;SDS011;15734;50.904;6.922;2022-09-29T15:15:55;6.55;;;1.95;;
28523;SDS011;15734;50.904;6.922;2022-09-29T15:21:16;7.47;;;1.90;;
28523;SDS011;15734;50.904;6.922;2022-09-29T15:24:10;4.65;;;1.70;;
28523;SDS011;15734;50.904;6.922;2022-09-29T15:26:47;4.10;;;2.03;;
28523;SDS011;15734;50.904;6.922;2022-09-29T15:29:13;4.65;;;2.00;;
28523;SDS011;15734;50.904;6.922;2022-09-29T15:31:42;16.50;;;2.58;;
28523;SDS011;15734;50.904;6.922;2022-09-29T15:34:14;2.92;;;1.88;;
28523;SDS011;15734;50.904;6.922;2022-09-29T15:42:03;3.03;;;1.95;;
28523;SDS011;15734;50.904;6.922;2022-09-29T15:44:57;4.05;;;1.48;;
28523;SDS011;15734;50.904;6.922;2022-09-29T15:47:26;5.93;;;1.70;;
28523;SDS011;15734;50.904;6.922;2022-09-29T15:49:58;4.97;;;3.53;;
28523;SDS011;15734;50.904;6.922;2022-09-29T15:52:27;3.85;;;1.77;;
28523;SDS011;15734;50.904;6.922;2022-09-29T15:54:54;3.33;;;1.50;;
28523;SDS011;15734;50.904;6.922;2022-09-29T16:05:27;5.80;;;2.08;;
28523;SDS011;15734;50.904;6.922;2022-09-29T16:10:31;10.13;;;2.20;;
28523;SDS011;15734;50.904;6.922;2022-09-29T16:13:00;4.25;;;2.08;;
28523;SDS011;15734;50.904;6.922;2022-09-29T16:15:33;6.50;;;3.22;;
28523;SDS011;15734;50.904;6.922;2022-09-29T16:18:04;5.82;;;2.25;;
28523;SDS011;15734;50.904;6.922;2022-09-29T16:20:39;4.50;;;2.50;;
28523;SDS011;15734;50.904;6.922;2022-09-29T16:23:08;4.80;;;2.20;;
28523;SDS011;15734;50.904;6.922;2022-09-29T16:28:36;7.07;;;3.47;;
28523;SDS011;15734;50.904;6.922;2022-09-29T16:31:17;8.60;;;3.63;;
28523;SDS011;15734;50.904;6.922;2022-09-29T16:33:46;13.27;;;4.85;;
28523;SDS011;15734;50.904;6.922;2022-09-29T16:38:47;14.85;;;3.42;;
28523;SDS011;15734;50.904;6.922;2022-09-29T16:41:28;12.32;;;3.47;;
28523;SDS011;15734;50.904;6.922;2022-09-29T16:49:47;5.85;;;3.17;;
28523;SDS011;15734;50.904;6.922;2022-09-29T16:55:25;11.32;;;3.30;;
28523;SDS011;15734;50.904;6.922;2022-09-29T17:00:47;7.00;;;2.60;;
28523;SDS011;15734;50.904;6.922;2022-09-29T17:03:12;4.72;;;2.75;;
28523;SDS011;15734;50.904;6.922;2022-09-29T17:05:39;7.10;;;2.97;;
28523;SDS011;15734;50.904;6.922;2022-09-29T17:08:15;10.75;;;2.22;;
28523;SDS011;15734;50.904;6.922;2022-09-29T17:10:47;7.97;;;2.50;;
28523;SDS011;15734;50.904;6.922;2022-09-29T17:13:17;4.13;;;2.17;;
28523;SDS011;15734;50.904;6.922;2022-09-29T17:15:43;6.88;;;3.22;;
28523;SDS011;15734;50.904;6.922;2022-09-29T17:18:13;7.60;;;2.25;;
28523;SDS011;15734;50.904;6.922;2022-09-29T17:20:40;7.68;;;2.35;;
28523;SDS011;15734;50.904;6.922;2022-09-29T17:23:05;3.28;;;1.85;;
28523;SDS011;15734;50.904;6.922;2022-09-29T17:25:33;6.03;;;2.30;;
28523;SDS011;15734;50.904;6.922;2022-09-29T17:28:00;8.35;;;2.28;;
28523;SDS011;15734;50.904;6.922;2022-09-29T17:30:39;7.85;;;2.50;;
28523;SDS011;15734;50.904;6.922;2022-09-29T17:33:15;4.32;;;1.98;;
28523;SDS011;15734;50.904;6.922;2022-09-29T17:35:43;11.35;;;2.80;;
28523;SDS011;15734;50.904;6.922;2022-09-29T17:38:13;5.78;;;2.00;;
28523;SDS011;15734;50.904;6.922;2022-09-29T17:40:54;10.23;;;2.63;;
28523;SDS011;15734;50.904;6.922;2022-09-29T17:43:28;4.68;;;2.67;;
28523;SDS011;15734;50.904;6.922;2022-09-29T17:45:55;6.03;;;2.03;;
28523;SDS011;15734;50.904;6.922;2022-09-29T17:48:22;5.43;;;1.83;;
28523;SDS011;15734;50.904;6.922;2022-09-29T17:50:53;7.38;;;2.22;;
28523;SDS011;15734;50.904;6.922;2022-09-29T17:53:20;5.00;;;1.98;;
28523;SDS011;15734;50.904;6.922;2022-09-29T17:55:48;6.38;;;2.10;;
28523;SDS011;15734;50.904;6.922;2022-09-29T17:58:17;5.15;;;1.70;;
28523;SDS011;15734;50.904;6.922;2022-09-29T18:00:47;7.60;;;2.20;;
28523;SDS011;15734;50.904;6.922;2022-09-29T18:03:14;4.70;;;1.90;;
28523;SDS011;15734;50.904;6.922;2022-09-29T18:05:42;4.20;;;2.28;;
28523;SDS011;15734;50.904;6.922;2022-09-29T18:08:12;7.32;;;2.22;;
28523;SDS011;15734;50.904;6.922;2022-09-29T18:10:43;6.20;;;2.38;;
28523;SDS011;15734;50.904;6.922;2022-09-29T18:15:39;4.72;;;2.15;;
28523;SDS011;15734;50.904;6.922;2022-09-29T18:18:06;9.13;;;2.53;;
28523;SDS011;15734;50.904;6.922;2022-09-29T18:20:32;6.30;;;2.20;;
28523;SDS011;15734;50.904;6.922;2022-09-29T18:23:00;6.35;;;2.28;;
28523;SDS011;15734;50.904;6.922;2022-09-29T18:25:27;5.32;;;2.22;;
28523;SDS011;15734;50.904;6.922;2022-09-29T18:27:53;5.10;;;2.72;;
28523;SDS011;15734;50.904;6.922;2022-09-29T18:30:21;4.63;;;2.40;;
28523;SDS011;15734;50.904;6.922;2022-09-29T18:32:49;7.88;;;2.20;;
28523;SDS011;15734;50.904;6.922;2022-09-29T18:35:38;7.78;;;3.17;;
28523;SDS011;15734;50.904;6.922;2022-09-29T18:38:05;10.27;;;2.75;;
28523;SDS011;15734;50.904;6.922;2022-09-29T18:40:31;9.27;;;3.38;;